sensor_id;sensor_type;location;lat;lon;timestamp;P1;durP1;ratioP1;P2;durP2;ratioP2
66179;SDS011;52986;44.028;20.466;2023-03-21T00:00:55;61.97;;;29.90;;
66179;SDS011;52986;44.028;20.466;2023-03-21T00:03:23;62.25;;;29.75;;
66179;SDS011;52986;44.028;20.466;2023-03-21T00:05:49;56.00;;;25.90;;
66179;SDS011;52986;44.028;20.466;2023-03-21T00:08:17;55.85;;;26.40;;
66179;SDS011;52986;44.028;20.466;2023-03-21T00:10:46;50.85;;;25.05;;
66179;SDS011;52986;44.028;20.466;2023-03-21T00:13:12;59.05;;;27.35;;
66179;SDS011;52986;44.028;20.466;2023-03-21T00:15:40;48.35;;;23.27;;
66179;SDS011;52986;44.028;20.466;2023-03-21T00:18:19;57.60;;;27.83;;
66179;SDS011;52986;44.028;20.466;2023-03-21T00:20:56;53.47;;;24.77;;
66179;SDS011;52986;44.028;20.466;2023-03-21T00:23:26;52.70;;;25.15;;
66179;SDS011;52986;44.028;20.466;2023-03-21T00:25:53;51.17;;;22.70;;
66179;SDS011;52986;44.028;20.466;2023-03-21T00:28:18;55.80;;;25.42;;
66179;SDS011;52986;44.028;20.466;2023-03-21T00:30:44;66.50;;;30.13;;
66179;SDS011;52986;44.028;20.466;2023-03-21T00:33:10;57.15;;;26.50;;
66179;SDS011;52986;44.028;20.466;2023-03-21T00:35:38;50.78;;;22.50;;
66179;SDS011;52986;44.028;20.466;2023-03-21T00:38:09;46.78;;;19.77;;
66179;SDS011;52986;44.028;20.466;2023-03-21T00:40:35;45.53;;;19.35;;
66179;SDS011;52986;44.028;20.466;2023-03-21T00:43:00;38.63;;;18.35;;
66179;SDS011;52986;44.028;20.466;2023-03-21T00:45:26;50.47;;;20.48;;
66179;SDS011;52986;44.028;20.466;2023-03-21T00:47:51;48.45;;;19.52;;
66179;SDS011;52986;44.028;20.466;2023-03-21T00:50:17;36.88;;;16.48;;
66179;SDS011;52986;44.028;20.466;2023-03-21T00:52:43;32.47;;;14.27;;
66179;SDS011;52986;44.028;20.466;2023-03-21T00:55:12;34.88;;;15.05;;
66179;SDS011;52986;44.028;20.466;2023-03-21T00:57:39;30.40;;;14.35;;
66179;SDS011;52986;44.028;20.466;2023-03-21T01:00:05;30.50;;;14.25;;
66179;SDS011;52986;44.028;20.466;2023-03-21T01:02:34;36.97;;;15.05;;
66179;SDS011;52986;44.028;20.466;2023-03-21T01:05:02;32.53;;;15.48;;
66179;SDS011;52986;44.028;20.466;2023-03-21T01:07:28;30.52;;;14.05;;
66179;SDS011;52986;44.028;20.466;2023-03-21T01:09:54;31.02;;;14.23;;
66179;SDS011;52986;44.028;20.466;2023-03-21T01:12:19;32.83;;;15.30;;
66179;SDS011;52986;44.028;20.466;2023-03-21T01:14:45;33.10;;;14.57;;
66179;SDS011;52986;44.028;20.466;2023-03-21T01:17:10;32.38;;;13.77;;
66179;SDS011;52986;44.028;20.466;2023-03-21T01:19:35;28.70;;;13.30;;
66179;SDS011;52986;44.028;20.466;2023-03-21T01:22:01;31.88;;;14.00;;
66179;SDS011;52986;44.028;20.466;2023-03-21T01:24:26;32.35;;;13.77;;
66179;SDS011;52986;44.028;20.466;2023-03-21T01:26:52;31.10;;;14.30;;
66179;SDS011;52986;44.028;20.466;2023-03-21T01:29:17;30.92;;;13.43;;
66179;SDS011;52986;44.028;20.466;2023-03-21T01:31:42;30.50;;;14.15;;
66179;SDS011;52986;44.028;20.466;2023-03-21T01:34:08;28.10;;;12.70;;
66179;SDS011;52986;44.028;20.466;2023-03-21T01:36:33;31.98;;;14.07;;
66179;SDS011;52986;44.028;20.466;2023-03-21T01:38:59;25.48;;;12.75;;
66179;SDS011;52986;44.028;20.466;2023-03-21T01:43:54;31.13;;;14.35;;
66179;SDS011;52986;44.028;20.466;2023-03-21T01:46:21;33.45;;;13.98;;
66179;SDS011;52986;44.028;20.466;2023-03-21T01:49:06;29.70;;;13.45;;
66179;SDS011;52986;44.028;20.466;2023-03-21T01:51:38;31.92;;;14.00;;
66179;SDS011;52986;44.028;20.466;2023-03-21T01:54:08;37.60;;;15.20;;
66179;SDS011;52986;44.028;20.466;2023-03-21T01:56:39;36.78;;;15.05;;
66179;SDS011;52986;44.028;20.466;2023-03-21T02:02:05;31.90;;;14.50;;
66179;SDS011;52986;44.028;20.466;2023-03-21T02:04:34;32.55;;;14.07;;
66179;SDS011;52986;44.028;20.466;2023-03-21T02:07:07;41.55;;;15.30;;
66179;SDS011;52986;44.028;20.466;2023-03-21T02:09:35;50.92;;;15.60;;
66179;SDS011;52986;44.028;20.466;2023-03-21T02:12:04;29.27;;;12.80;;
66179;SDS011;52986;44.028;20.466;2023-03-21T02:14:31;29.80;;;13.55;;
66179;SDS011;52986;44.028;20.466;2023-03-21T02:27:39;27.52;;;13.02;;
66179;SDS011;52986;44.028;20.466;2023-03-21T02:35:41;26.85;;;11.77;;
66179;SDS011;52986;44.028;20.466;2023-03-21T02:38:33;24.02;;;11.15;;
66179;SDS011;52986;44.028;20.466;2023-03-21T02:41:28;23.77;;;11.52;;
66179;SDS011;52986;44.028;20.466;2023-03-21T02:50:06;26.90;;;11.32;;
66179;SDS011;52986;44.028;20.466;2023-03-21T02:52:37;24.98;;;10.93;;
66179;SDS011;52986;44.028;20.466;2023-03-21T02:55:04;21.70;;;10.55;;
66179;SDS011;52986;44.028;20.466;2023-03-21T02:57:40;25.10;;;11.63;;
66179;SDS011;52986;44.028;20.466;2023-03-21T03:00:08;26.50;;;11.52;;
66179;SDS011;52986;44.028;20.466;2023-03-21T03:02:37;30.60;;;12.93;;
66179;SDS011;52986;44.028;20.466;2023-03-21T03:28:51;25.00;;;10.95;;
66179;SDS011;52986;44.028;20.466;2023-03-21T03:31:23;27.25;;;11.75;;
66179;SDS011;52986;44.028;20.466;2023-03-21T03:33:54;24.77;;;11.52;;
66179;SDS011;52986;44.028;20.466;2023-03-21T03:36:23;25.20;;;11.60;;
66179;SDS011;52986;44.028;20.466;2023-03-21T03:38:52;28.83;;;11.95;;
66179;SDS011;52986;44.028;20.466;2023-03-21T03:41:25;27.00;;;12.35;;
66179;SDS011;52986;44.028;20.466;2023-03-21T03:43:54;31.90;;;13.23;;
66179;SDS011;52986;44.028;20.466;2023-03-21T03:46:31;28.17;;;13.00;;
66179;SDS011;52986;44.028;20.466;2023-03-21T03:49:04;26.70;;;12.20;;
66179;SDS011;52986;44.028;20.466;2023-03-21T03:51:49;27.05;;;11.50;;
66179;SDS011;52986;44.028;20.466;2023-03-21T03:54:20;24.48;;;11.18;;
66179;SDS011;52986;44.028;20.466;2023-03-21T03:56:50;29.58;;;13.05;;
66179;SDS011;52986;44.028;20.466;2023-03-21T03:59:16;26.80;;;12.50;;
66179;SDS011;52986;44.028;20.466;2023-03-21T04:01:43;28.20;;;12.10;;
66179;SDS011;52986;44.028;20.466;2023-03-21T04:04:09;24.73;;;12.35;;
66179;SDS011;52986;44.028;20.466;2023-03-21T04:06:35;25.75;;;11.93;;
66179;SDS011;52986;44.028;20.466;2023-03-21T04:09:01;26.73;;;12.27;;
66179;SDS011;52986;44.028;20.466;2023-03-21T04:11:28;25.75;;;12.07;;
66179;SDS011;52986;44.028;20.466;2023-03-21T04:13:54;30.35;;;11.30;;
66179;SDS011;52986;44.028;20.466;2023-03-21T04:16:19;33.60;;;14.88;;
66179;SDS011;52986;44.028;20.466;2023-03-21T04:18:44;30.13;;;14.93;;
66179;SDS011;52986;44.028;20.466;2023-03-21T04:21:11;32.50;;;15.73;;
66179;SDS011;52986;44.028;20.466;2023-03-21T04:23:37;34.05;;;15.60;;
66179;SDS011;52986;44.028;20.466;2023-03-21T04:26:04;34.63;;;12.95;;
66179;SDS011;52986;44.028;20.466;2023-03-21T04:28:30;29.25;;;13.43;;
66179;SDS011;52986;44.028;20.466;2023-03-21T04:30:57;33.10;;;12.60;;
66179;SDS011;52986;44.028;20.466;2023-03-21T04:33:23;26.58;;;12.68;;
66179;SDS011;52986;44.028;20.466;2023-03-21T04:35:51;33.40;;;13.00;;
66179;SDS011;52986;44.028;20.466;2023-03-21T04:38:21;49.72;;;14.07;;
66179;SDS011;52986;44.028;20.466;2023-03-21T04:40:47;36.25;;;14.18;;
66179;SDS011;52986;44.028;20.466;2023-03-21T04:43:12;30.23;;;13.32;;
66179;SDS011;52986;44.028;20.466;2023-03-21T04:45:38;30.00;;;13.45;;
66179;SDS011;52986;44.028;20.466;2023-03-21T04:48:03;28.60;;;12.90;;
66179;SDS011;52986;44.028;20.466;2023-03-21T04:50:29;28.55;;;12.98;;
66179;SDS011;52986;44.028;20.466;2023-03-21T04:52:55;28.95;;;12.98;;
66179;SDS011;52986;44.028;20.466;2023-03-21T04:55:21;28.27;;;12.75;;
66179;SDS011;52986;44.028;20.466;2023-03-21T04:57:49;30.35;;;13.45;;
66179;SDS011;52986;44.028;20.466;2023-03-21T05:00:14;25.70;;;12.35;;
66179;SDS011;52986;44.028;20.466;2023-03-21T05:02:40;29.13;;;13.05;;
66179;SDS011;52986;44.028;20.466;2023-03-21T05:05:06;25.45;;;12.18;;
66179;SDS011;52986;44.028;20.466;2023-03-21T05:07:35;35.03;;;14.75;;
66179;SDS011;52986;44.028;20.466;2023-03-21T05:10:01;39.40;;;15.13;;
66179;SDS011;52986;44.028;20.466;2023-03-21T05:12:27;39.63;;;14.73;;
66179;SDS011;52986;44.028;20.466;2023-03-21T05:14:52;36.22;;;14.57;;
66179;SDS011;52986;44.028;20.466;2023-03-21T05:17:18;29.15;;;12.82;;
66179;SDS011;52986;44.028;20.466;2023-03-21T05:19:47;37.63;;;16.15;;
66179;SDS011;52986;44.028;20.466;2023-03-21T05:22:14;34.22;;;15.38;;
66179;SDS011;52986;44.028;20.466;2023-03-21T05:24:43;32.75;;;15.75;;
66179;SDS011;52986;44.028;20.466;2023-03-21T05:27:14;31.38;;;14.70;;
66179;SDS011;52986;44.028;20.466;2023-03-21T05:32:33;30.33;;;16.10;;
66179;SDS011;52986;44.028;20.466;2023-03-21T05:34:58;34.38;;;15.70;;
66179;SDS011;52986;44.028;20.466;2023-03-21T05:37:24;42.08;;;16.80;;
66179;SDS011;52986;44.028;20.466;2023-03-21T05:39:49;39.15;;;16.40;;
66179;SDS011;52986;44.028;20.466;2023-03-21T05:42:15;40.75;;;16.45;;
66179;SDS011;52986;44.028;20.466;2023-03-21T05:44:42;39.03;;;18.90;;
66179;SDS011;52986;44.028;20.466;2023-03-21T05:47:09;39.83;;;20.33;;
66179;SDS011;52986;44.028;20.466;2023-03-21T05:49:35;46.47;;;21.08;;
66179;SDS011;52986;44.028;20.466;2023-03-21T05:52:01;44.00;;;19.98;;
66179;SDS011;52986;44.028;20.466;2023-03-21T05:54:26;37.20;;;18.77;;
66179;SDS011;52986;44.028;20.466;2023-03-21T05:56:51;40.97;;;19.63;;
66179;SDS011;52986;44.028;20.466;2023-03-21T05:59:17;43.78;;;21.10;;
66179;SDS011;52986;44.028;20.466;2023-03-21T06:01:42;38.72;;;20.20;;
66179;SDS011;52986;44.028;20.466;2023-03-21T06:04:07;43.22;;;20.55;;
66179;SDS011;52986;44.028;20.466;2023-03-21T06:06:33;41.97;;;20.50;;
66179;SDS011;52986;44.028;20.466;2023-03-21T06:08:58;43.72;;;20.02;;
66179;SDS011;52986;44.028;20.466;2023-03-21T06:11:25;37.33;;;18.95;;
66179;SDS011;52986;44.028;20.466;2023-03-21T06:13:53;42.30;;;20.25;;
66179;SDS011;52986;44.028;20.466;2023-03-21T06:16:18;37.85;;;19.92;;
66179;SDS011;52986;44.028;20.466;2023-03-21T06:18:44;43.10;;;20.88;;
66179;SDS011;52986;44.028;20.466;2023-03-21T06:21:09;42.38;;;19.83;;
66179;SDS011;52986;44.028;20.466;2023-03-21T06:23:35;38.33;;;20.13;;
66179;SDS011;52986;44.028;20.466;2023-03-21T06:26:01;38.58;;;20.20;;
66179;SDS011;52986;44.028;20.466;2023-03-21T06:28:27;45.55;;;20.98;;
66179;SDS011;52986;44.028;20.466;2023-03-21T06:30:52;47.30;;;20.77;;
66179;SDS011;52986;44.028;20.466;2023-03-21T06:33:18;42.17;;;21.15;;
66179;SDS011;52986;44.028;20.466;2023-03-21T06:35:43;42.47;;;22.10;;
66179;SDS011;52986;44.028;20.466;2023-03-21T06:38:09;46.78;;;23.02;;
66179;SDS011;52986;44.028;20.466;2023-03-21T06:40:36;49.38;;;25.95;;
66179;SDS011;52986;44.028;20.466;2023-03-21T06:43:02;46.33;;;24.50;;
66179;SDS011;52986;44.028;20.466;2023-03-21T06:45:27;51.25;;;25.48;;
66179;SDS011;52986;44.028;20.466;2023-03-21T06:47:53;53.00;;;25.98;;
66179;SDS011;52986;44.028;20.466;2023-03-21T06:50:18;48.58;;;25.42;;
66179;SDS011;52986;44.028;20.466;2023-03-21T06:52:43;52.45;;;26.17;;
66179;SDS011;52986;44.028;20.466;2023-03-21T06:55:09;50.88;;;24.65;;
66179;SDS011;52986;44.028;20.466;2023-03-21T06:57:35;52.45;;;25.27;;
66179;SDS011;52986;44.028;20.466;2023-03-21T07:00:01;50.60;;;24.88;;
66179;SDS011;52986;44.028;20.466;2023-03-21T07:02:29;48.85;;;24.73;;
66179;SDS011;52986;44.028;20.466;2023-03-21T07:04:55;50.25;;;25.02;;
66179;SDS011;52986;44.028;20.466;2023-03-21T07:07:23;49.03;;;25.60;;
66179;SDS011;52986;44.028;20.466;2023-03-21T07:09:50;58.47;;;25.52;;
66179;SDS011;52986;44.028;20.466;2023-03-21T07:12:15;51.72;;;25.42;;
66179;SDS011;52986;44.028;20.466;2023-03-21T07:14:41;49.83;;;25.40;;
66179;SDS011;52986;44.028;20.466;2023-03-21T07:17:06;51.28;;;26.10;;
66179;SDS011;52986;44.028;20.466;2023-03-21T07:19:32;55.00;;;27.88;;
66179;SDS011;52986;44.028;20.466;2023-03-21T07:21:57;50.97;;;29.05;;
66179;SDS011;52986;44.028;20.466;2023-03-21T07:24:24;56.67;;;27.40;;
66179;SDS011;52986;44.028;20.466;2023-03-21T07:26:50;57.65;;;27.77;;
66179;SDS011;52986;44.028;20.466;2023-03-21T07:29:15;63.40;;;31.75;;
66179;SDS011;52986;44.028;20.466;2023-03-21T07:31:41;57.25;;;30.20;;
66179;SDS011;52986;44.028;20.466;2023-03-21T07:34:07;50.00;;;27.20;;
66179;SDS011;52986;44.028;20.466;2023-03-21T07:36:32;49.35;;;26.98;;
66179;SDS011;52986;44.028;20.466;2023-03-21T07:38:57;49.92;;;26.90;;
66179;SDS011;52986;44.028;20.466;2023-03-21T07:41:23;44.78;;;24.77;;
66179;SDS011;52986;44.028;20.466;2023-03-21T07:43:48;40.42;;;22.67;;
66179;SDS011;52986;44.028;20.466;2023-03-21T07:46:13;47.75;;;26.50;;
66179;SDS011;52986;44.028;20.466;2023-03-21T07:48:39;46.78;;;22.92;;
66179;SDS011;52986;44.028;20.466;2023-03-21T07:51:04;31.90;;;16.55;;
66179;SDS011;52986;44.028;20.466;2023-03-21T07:53:30;36.65;;;17.55;;
66179;SDS011;52986;44.028;20.466;2023-03-21T07:55:55;46.95;;;23.95;;
66179;SDS011;52986;44.028;20.466;2023-03-21T07:58:21;32.95;;;19.00;;
66179;SDS011;52986;44.028;20.466;2023-03-21T08:00:51;34.13;;;16.50;;
66179;SDS011;52986;44.028;20.466;2023-03-21T08:03:17;32.03;;;15.73;;
66179;SDS011;52986;44.028;20.466;2023-03-21T08:05:43;29.50;;;14.80;;
66179;SDS011;52986;44.028;20.466;2023-03-21T08:08:09;30.20;;;14.77;;
66179;SDS011;52986;44.028;20.466;2023-03-21T08:10:34;25.10;;;13.40;;
66179;SDS011;52986;44.028;20.466;2023-03-21T08:13:00;27.17;;;13.63;;
66179;SDS011;52986;44.028;20.466;2023-03-21T08:15:26;26.98;;;14.05;;
66179;SDS011;52986;44.028;20.466;2023-03-21T08:17:51;27.27;;;14.55;;
66179;SDS011;52986;44.028;20.466;2023-03-21T08:20:18;31.23;;;15.20;;
66179;SDS011;52986;44.028;20.466;2023-03-21T08:22:46;26.70;;;14.27;;
66179;SDS011;52986;44.028;20.466;2023-03-21T08:25:12;35.35;;;16.55;;
66179;SDS011;52986;44.028;20.466;2023-03-21T08:27:40;26.27;;;10.15;;
66179;SDS011;52986;44.028;20.466;2023-03-21T08:30:07;22.10;;;9.15;;
66179;SDS011;52986;44.028;20.466;2023-03-21T08:32:37;19.45;;;9.30;;
66179;SDS011;52986;44.028;20.466;2023-03-21T08:35:03;26.77;;;9.30;;
66179;SDS011;52986;44.028;20.466;2023-03-21T08:37:31;20.25;;;9.55;;
66179;SDS011;52986;44.028;20.466;2023-03-21T08:39:57;18.33;;;8.55;;
66179;SDS011;52986;44.028;20.466;2023-03-21T08:42:23;18.05;;;8.13;;
66179;SDS011;52986;44.028;20.466;2023-03-21T08:44:48;18.30;;;8.25;;
66179;SDS011;52986;44.028;20.466;2023-03-21T08:47:14;15.68;;;8.23;;
66179;SDS011;52986;44.028;20.466;2023-03-21T08:49:40;17.88;;;8.13;;
66179;SDS011;52986;44.028;20.466;2023-03-21T08:52:06;15.38;;;7.38;;
66179;SDS011;52986;44.028;20.466;2023-03-21T08:54:32;19.42;;;8.05;;
66179;SDS011;52986;44.028;20.466;2023-03-21T08:56:57;17.90;;;8.05;;
66179;SDS011;52986;44.028;20.466;2023-03-21T08:59:23;17.27;;;8.27;;
66179;SDS011;52986;44.028;20.466;2023-03-21T09:01:48;20.35;;;9.45;;
66179;SDS011;52986;44.028;20.466;2023-03-21T09:04:13;17.95;;;8.57;;
66179;SDS011;52986;44.028;20.466;2023-03-21T09:06:39;21.23;;;9.32;;
66179;SDS011;52986;44.028;20.466;2023-03-21T09:09:14;21.48;;;10.98;;
66179;SDS011;52986;44.028;20.466;2023-03-21T09:11:40;23.15;;;10.23;;
66179;SDS011;52986;44.028;20.466;2023-03-21T09:14:06;22.67;;;10.77;;
66179;SDS011;52986;44.028;20.466;2023-03-21T09:16:31;19.02;;;10.75;;
66179;SDS011;52986;44.028;20.466;2023-03-21T09:18:57;18.60;;;10.32;;
66179;SDS011;52986;44.028;20.466;2023-03-21T09:21:23;23.48;;;10.88;;
66179;SDS011;52986;44.028;20.466;2023-03-21T09:23:49;23.90;;;11.27;;
66179;SDS011;52986;44.028;20.466;2023-03-21T09:26:18;23.30;;;10.95;;
66179;SDS011;52986;44.028;20.466;2023-03-21T09:28:44;23.45;;;11.07;;
66179;SDS011;52986;44.028;20.466;2023-03-21T09:31:11;22.90;;;11.07;;
66179;SDS011;52986;44.028;20.466;2023-03-21T09:33:40;26.80;;;11.27;;
66179;SDS011;52986;44.028;20.466;2023-03-21T09:36:07;22.33;;;10.23;;
66179;SDS011;52986;44.028;20.466;2023-03-21T09:38:38;20.40;;;10.40;;
66179;SDS011;52986;44.028;20.466;2023-03-21T09:49:21;20.23;;;9.70;;
66179;SDS011;52986;44.028;20.466;2023-03-21T09:51:55;20.13;;;9.30;;
66179;SDS011;52986;44.028;20.466;2023-03-21T09:54:30;21.27;;;9.82;;
66179;SDS011;52986;44.028;20.466;2023-03-21T09:57:06;24.10;;;10.20;;
66179;SDS011;52986;44.028;20.466;2023-03-21T09:59:45;20.92;;;10.30;;
66179;SDS011;52986;44.028;20.466;2023-03-21T10:05:00;26.13;;;11.73;;
66179;SDS011;52986;44.028;20.466;2023-03-21T10:07:30;20.90;;;10.18;;
66179;SDS011;52986;44.028;20.466;2023-03-21T10:10:03;21.55;;;10.90;;
66179;SDS011;52986;44.028;20.466;2023-03-21T10:12:31;20.95;;;10.05;;
66179;SDS011;52986;44.028;20.466;2023-03-21T10:14:58;20.17;;;10.77;;
66179;SDS011;52986;44.028;20.466;2023-03-21T10:17:30;25.42;;;10.73;;
66179;SDS011;52986;44.028;20.466;2023-03-21T10:20:17;19.42;;;9.63;;
66179;SDS011;52986;44.028;20.466;2023-03-21T10:22:45;21.85;;;9.45;;
66179;SDS011;52986;44.028;20.466;2023-03-21T10:25:15;28.52;;;10.95;;
66179;SDS011;52986;44.028;20.466;2023-03-21T10:27:43;20.50;;;9.90;;
66179;SDS011;52986;44.028;20.466;2023-03-21T10:30:24;19.52;;;9.23;;
66179;SDS011;52986;44.028;20.466;2023-03-21T10:32:55;25.23;;;10.43;;
66179;SDS011;52986;44.028;20.466;2023-03-21T10:35:23;21.35;;;9.98;;
66179;SDS011;52986;44.028;20.466;2023-03-21T10:37:48;28.80;;;10.13;;
66179;SDS011;52986;44.028;20.466;2023-03-21T10:40:15;19.08;;;9.70;;
66179;SDS011;52986;44.028;20.466;2023-03-21T10:42:41;19.92;;;10.60;;
66179;SDS011;52986;44.028;20.466;2023-03-21T10:45:17;24.05;;;10.93;;
66179;SDS011;52986;44.028;20.466;2023-03-21T10:47:45;20.33;;;9.95;;
66179;SDS011;52986;44.028;20.466;2023-03-21T10:50:12;23.35;;;10.35;;
66179;SDS011;52986;44.028;20.466;2023-03-21T10:52:47;22.45;;;9.60;;
66179;SDS011;52986;44.028;20.466;2023-03-21T10:57:44;19.50;;;9.90;;
66179;SDS011;52986;44.028;20.466;2023-03-21T11:00:12;19.60;;;10.07;;
66179;SDS011;52986;44.028;20.466;2023-03-21T11:02:46;26.70;;;9.48;;
66179;SDS011;52986;44.028;20.466;2023-03-21T11:05:32;19.42;;;9.52;;
66179;SDS011;52986;44.028;20.466;2023-03-21T11:08:04;19.95;;;9.27;;
66179;SDS011;52986;44.028;20.466;2023-03-21T11:10:35;18.75;;;9.65;;
66179;SDS011;52986;44.028;20.466;2023-03-21T11:13:04;17.98;;;9.65;;
66179;SDS011;52986;44.028;20.466;2023-03-21T11:18:25;16.27;;;8.93;;
66179;SDS011;52986;44.028;20.466;2023-03-21T11:20:56;19.60;;;9.63;;
66179;SDS011;52986;44.028;20.466;2023-03-21T11:25:55;29.58;;;10.38;;
66179;SDS011;52986;44.028;20.466;2023-03-21T11:28:23;23.33;;;9.57;;
66179;SDS011;52986;44.028;20.466;2023-03-21T11:30:57;20.95;;;10.00;;
66179;SDS011;52986;44.028;20.466;2023-03-21T11:33:26;21.88;;;11.13;;
66179;SDS011;52986;44.028;20.466;2023-03-21T11:35:59;27.15;;;13.30;;
66179;SDS011;52986;44.028;20.466;2023-03-21T11:38:52;22.30;;;10.77;;
66179;SDS011;52986;44.028;20.466;2023-03-21T11:41:38;25.65;;;11.63;;
66179;SDS011;52986;44.028;20.466;2023-03-21T11:44:06;24.15;;;12.35;;
66179;SDS011;52986;44.028;20.466;2023-03-21T11:46:49;21.33;;;10.52;;
66179;SDS011;52986;44.028;20.466;2023-03-21T11:49:15;18.38;;;9.75;;
66179;SDS011;52986;44.028;20.466;2023-03-21T11:51:44;21.08;;;10.30;;
66179;SDS011;52986;44.028;20.466;2023-03-21T11:54:20;19.45;;;10.15;;
66179;SDS011;52986;44.028;20.466;2023-03-21T11:56:55;23.20;;;9.98;;
66179;SDS011;52986;44.028;20.466;2023-03-21T11:59:49;19.65;;;9.30;;
66179;SDS011;52986;44.028;20.466;2023-03-21T12:05:25;21.58;;;10.63;;
66179;SDS011;52986;44.028;20.466;2023-03-21T12:08:19;22.83;;;10.30;;
66179;SDS011;52986;44.028;20.466;2023-03-21T12:11:05;25.02;;;9.07;;
66179;SDS011;52986;44.028;20.466;2023-03-21T12:18:56;19.40;;;9.98;;
66179;SDS011;52986;44.028;20.466;2023-03-21T12:21:35;20.52;;;10.40;;
66179;SDS011;52986;44.028;20.466;2023-03-21T12:24:20;19.73;;;10.23;;
66179;SDS011;52986;44.028;20.466;2023-03-21T12:26:57;22.08;;;10.35;;
66179;SDS011;52986;44.028;20.466;2023-03-21T12:32:22;24.10;;;10.60;;
66179;SDS011;52986;44.028;20.466;2023-03-21T12:38:37;18.70;;;10.20;;
66179;SDS011;52986;44.028;20.466;2023-03-21T12:40:53;22.67;;;10.23;;
66179;SDS011;52986;44.028;20.466;2023-03-21T12:43:25;19.90;;;10.68;;
66179;SDS011;52986;44.028;20.466;2023-03-21T12:45:58;20.77;;;10.23;;
66179;SDS011;52986;44.028;20.466;2023-03-21T12:51:35;22.83;;;11.20;;
66179;SDS011;52986;44.028;20.466;2023-03-21T12:54:10;23.40;;;11.40;;
66179;SDS011;52986;44.028;20.466;2023-03-21T12:56:48;25.02;;;10.52;;
66179;SDS011;52986;44.028;20.466;2023-03-21T12:59:30;22.67;;;10.68;;
66179;SDS011;52986;44.028;20.466;2023-03-21T13:02:13;39.10;;;14.00;;
66179;SDS011;52986;44.028;20.466;2023-03-21T13:04:51;23.33;;;11.18;;
66179;SDS011;52986;44.028;20.466;2023-03-21T13:07:24;21.83;;;11.27;;
66179;SDS011;52986;44.028;20.466;2023-03-21T13:09:53;20.40;;;11.05;;
66179;SDS011;52986;44.028;20.466;2023-03-21T13:15:07;26.95;;;12.63;;
66179;SDS011;52986;44.028;20.466;2023-03-21T13:17:45;31.08;;;12.00;;
66179;SDS011;52986;44.028;20.466;2023-03-21T13:22:51;23.75;;;10.57;;
66179;SDS011;52986;44.028;20.466;2023-03-21T13:25:23;22.25;;;9.80;;
66179;SDS011;52986;44.028;20.466;2023-03-21T13:27:51;20.20;;;10.88;;
66179;SDS011;52986;44.028;20.466;2023-03-21T13:30:22;22.40;;;10.77;;
66179;SDS011;52986;44.028;20.466;2023-03-21T13:33:11;30.48;;;11.15;;
66179;SDS011;52986;44.028;20.466;2023-03-21T13:35:39;27.10;;;10.68;;
66179;SDS011;52986;44.028;20.466;2023-03-21T13:38:14;24.67;;;10.70;;
66179;SDS011;52986;44.028;20.466;2023-03-21T13:56:25;19.83;;;9.93;;
66179;SDS011;52986;44.028;20.466;2023-03-21T13:58:52;20.70;;;10.70;;
66179;SDS011;52986;44.028;20.466;2023-03-21T14:04:03;24.38;;;11.23;;
66179;SDS011;52986;44.028;20.466;2023-03-21T14:06:30;26.25;;;12.07;;
66179;SDS011;52986;44.028;20.466;2023-03-21T14:09:04;26.02;;;12.13;;
66179;SDS011;52986;44.028;20.466;2023-03-21T14:11:30;24.42;;;11.82;;
66179;SDS011;52986;44.028;20.466;2023-03-21T14:13:58;28.05;;;12.68;;
66179;SDS011;52986;44.028;20.466;2023-03-21T14:16:25;24.08;;;12.30;;
66179;SDS011;52986;44.028;20.466;2023-03-21T14:18:57;25.40;;;11.23;;
66179;SDS011;52986;44.028;20.466;2023-03-21T14:21:26;22.35;;;11.55;;
66179;SDS011;52986;44.028;20.466;2023-03-21T14:24:27;27.20;;;14.38;;
66179;SDS011;52986;44.028;20.466;2023-03-21T14:26:49;25.27;;;13.25;;
66179;SDS011;52986;44.028;20.466;2023-03-21T14:29:30;25.92;;;13.18;;
66179;SDS011;52986;44.028;20.466;2023-03-21T14:31:58;25.15;;;13.20;;
66179;SDS011;52986;44.028;20.466;2023-03-21T14:34:28;29.85;;;14.57;;
66179;SDS011;52986;44.028;20.466;2023-03-21T14:36:57;33.55;;;15.70;;
66179;SDS011;52986;44.028;20.466;2023-03-21T14:39:25;33.22;;;17.13;;
66179;SDS011;52986;44.028;20.466;2023-03-21T14:41:53;29.77;;;15.77;;
66179;SDS011;52986;44.028;20.466;2023-03-21T14:44:24;30.13;;;16.30;;
66179;SDS011;52986;44.028;20.466;2023-03-21T14:47:05;26.02;;;13.77;;
66179;SDS011;52986;44.028;20.466;2023-03-21T14:49:33;24.77;;;12.35;;
66179;SDS011;52986;44.028;20.466;2023-03-21T14:52:01;26.70;;;12.85;;
66179;SDS011;52986;44.028;20.466;2023-03-21T14:54:29;21.02;;;12.68;;
66179;SDS011;52986;44.028;20.466;2023-03-21T14:56:59;20.80;;;10.95;;
66179;SDS011;52986;44.028;20.466;2023-03-21T14:59:28;23.00;;;11.05;;
66179;SDS011;52986;44.028;20.466;2023-03-21T15:01:57;19.88;;;10.93;;
66179;SDS011;52986;44.028;20.466;2023-03-21T15:04:26;20.00;;;11.27;;
66179;SDS011;52986;44.028;20.466;2023-03-21T15:06:53;23.23;;;10.77;;
66179;SDS011;52986;44.028;20.466;2023-03-21T15:09:26;20.35;;;10.10;;
66179;SDS011;52986;44.028;20.466;2023-03-21T15:11:54;19.83;;;10.48;;
66179;SDS011;52986;44.028;20.466;2023-03-21T15:14:28;22.45;;;11.15;;
66179;SDS011;52986;44.028;20.466;2023-03-21T15:16:58;29.38;;;11.70;;
66179;SDS011;52986;44.028;20.466;2023-03-21T15:19:32;22.83;;;11.07;;
66179;SDS011;52986;44.028;20.466;2023-03-21T15:22:45;26.02;;;13.50;;
66179;SDS011;52986;44.028;20.466;2023-03-21T15:25:00;23.55;;;12.82;;
66179;SDS011;52986;44.028;20.466;2023-03-21T15:27:29;27.50;;;13.45;;
66179;SDS011;52986;44.028;20.466;2023-03-21T15:29:58;22.13;;;11.15;;
66179;SDS011;52986;44.028;20.466;2023-03-21T15:32:24;19.73;;;11.07;;
66179;SDS011;52986;44.028;20.466;2023-03-21T15:35:03;26.23;;;12.10;;
66179;SDS011;52986;44.028;20.466;2023-03-21T15:40:20;21.65;;;11.55;;
66179;SDS011;52986;44.028;20.466;2023-03-21T15:42:48;24.35;;;13.52;;
66179;SDS011;52986;44.028;20.466;2023-03-21T15:45:24;27.15;;;13.80;;
66179;SDS011;52986;44.028;20.466;2023-03-21T15:47:54;24.42;;;13.25;;
66179;SDS011;52986;44.028;20.466;2023-03-21T15:52:50;30.23;;;16.08;;
66179;SDS011;52986;44.028;20.466;2023-03-21T15:55:28;30.63;;;16.30;;
66179;SDS011;52986;44.028;20.466;2023-03-21T15:58:02;29.38;;;16.10;;
66179;SDS011;52986;44.028;20.466;2023-03-21T16:00:39;30.50;;;16.23;;
66179;SDS011;52986;44.028;20.466;2023-03-21T16:03:19;32.10;;;18.15;;
66179;SDS011;52986;44.028;20.466;2023-03-21T16:11:56;35.28;;;19.75;;
66179;SDS011;52986;44.028;20.466;2023-03-21T16:14:23;35.10;;;20.75;;
66179;SDS011;52986;44.028;20.466;2023-03-21T16:16:52;34.88;;;17.58;;
66179;SDS011;52986;44.028;20.466;2023-03-21T16:19:17;30.27;;;17.83;;
66179;SDS011;52986;44.028;20.466;2023-03-21T16:21:43;40.72;;;20.52;;
66179;SDS011;52986;44.028;20.466;2023-03-21T16:24:10;38.00;;;18.63;;
66179;SDS011;52986;44.028;20.466;2023-03-21T16:26:41;33.58;;;18.30;;
66179;SDS011;52986;44.028;20.466;2023-03-21T16:29:11;30.65;;;17.17;;